Time;durP1;ratioP1;P1;durP2;ratioP2;P2;SDS_P1;SDS_P2;PMS_P1;PMS_P2;Temp;Humidity;BMP_temperature;BMP_pressure;BME280_temperature;BME280_humidity;BME280_pressure;Samples;Min_cycle;Max_cycle;Signal;HPM_P1;HPM_P2
2021/10/15 00:01:25;;;;;;;54.13;48.23;;;12.60;99.90;;;;;;5047743;28;20395;-83
2021/10/15 00:03:50;;;;;;;52.70;47.10;;;12.60;99.90;;;;;;5048042;28;20406;-84
2021/10/15 00:06:16;;;;;;;52.25;46.70;;;12.60;99.90;;;;;;5073643;28;20383;-82
2021/10/15 00:08:42;;;;;;;50.40;44.97;;;12.60;99.90;;;;;;5040530;28;20385;-83
2021/10/15 00:11:07;;;;;;;49.67;44.57;;;12.60;99.90;;;;;;5043547;28;20395;-83
2021/10/15 00:13:33;;;;;;;48.05;42.72;;;12.60;99.90;;;;;;5049223;28;20445;-83
2021/10/15 00:15:59;;;;;;;48.20;43.00;;;12.60;99.90;;;;;;5048726;28;20940;-84
2021/10/15 00:18:24;;;;;;;48.97;44.03;;;12.60;99.90;;;;;;5046327;28;20901;-82
2021/10/15 00:20:51;;;;;;;47.92;43.03;;;12.70;99.90;;;;;;5066279;28;20768;-82
2021/10/15 00:23:16;;;;;;;46.63;41.70;;;12.60;99.90;;;;;;5050565;28;20861;-84
2021/10/15 00:25:42;;;;;;;45.40;40.65;;;12.70;99.90;;;;;;5050316;28;20388;-83
2021/10/15 00:28:08;;;;;;;46.00;41.17;;;12.70;99.90;;;;;;5051299;28;20810;-82
2021/10/15 00:30:33;;;;;;;45.27;40.40;;;12.70;99.90;;;;;;5051168;28;20384;-82
2021/10/15 00:32:59;;;;;;;45.42;40.70;;;12.70;99.90;;;;;;5049990;28;20901;-84
2021/10/15 00:35:25;;;;;;;45.28;40.58;;;12.60;99.90;;;;;;5048297;28;22503;-82
2021/10/15 00:37:51;;;;;;;43.40;38.90;;;12.60;99.90;;;;;;5050232;28;20442;-83
2021/10/15 00:40:17;;;;;;;44.17;39.30;;;12.60;99.90;;;;;;5049965;28;20376;-84
2021/10/15 00:42:43;;;;;;;43.58;37.60;;;12.70;99.90;;;;;;5050794;28;21481;-83
2021/10/15 00:45:09;;;;;;;42.63;38.13;;;12.70;99.90;;;;;;5050563;28;20921;-85
2021/10/15 00:47:35;;;;;;;40.65;36.33;;;12.70;99.90;;;;;;5049474;28;20395;-83
2021/10/15 00:50:00;;;;;;;40.57;36.17;;;12.60;99.90;;;;;;5049899;28;20380;-83
2021/10/15 00:52:30;;;;;;;38.50;34.50;;;12.60;99.90;;;;;;5050338;28;20399;-83
2021/10/15 00:54:56;;;;;;;36.45;32.65;;;12.60;99.90;;;;;;5049896;28;20398;-83
2021/10/15 00:57:22;;;;;;;34.92;31.35;;;12.60;99.90;;;;;;5048582;28;20894;-84
2021/10/15 00:59:48;;;;;;;35.67;31.90;;;12.60;99.90;;;;;;5049847;28;20538;-82
2021/10/15 01:02:13;;;;;;;36.17;32.42;;;12.60;99.90;;;;;;5048746;28;20383;-83
2021/10/15 01:04:39;;;;;;;36.42;32.78;;;12.60;99.90;;;;;;5047914;28;20507;-83
2021/10/15 01:07:06;;;;;;;34.72;31.20;;;12.50;99.90;;;;;;5048752;28;20394;-84
2021/10/15 01:09:32;;;;;;;35.58;31.98;;;12.40;99.90;;;;;;5050145;28;20372;-84
2021/10/15 01:11:59;;;;;;;33.95;30.45;;;12.40;99.90;;;;;;5049967;28;20462;-85
2021/10/15 01:14:25;;;;;;;33.95;30.48;;;12.50;99.90;;;;;;5050010;28;20951;-84
2021/10/15 01:16:50;;;;;;;32.47;29.13;;;12.50;99.90;;;;;;5049718;28;20403;-84
2021/10/15 01:19:16;;;;;;;31.02;27.92;;;12.50;99.90;;;;;;5047322;28;20442;-82
2021/10/15 01:21:41;;;;;;;31.47;28.17;;;12.50;99.90;;;;;;5048301;28;20487;-82
2021/10/15 01:24:07;;;;;;;31.60;28.30;;;12.50;99.90;;;;;;5049785;28;20758;-83
2021/10/15 01:26:33;;;;;;;32.15;28.98;;;12.50;99.90;;;;;;5047663;28;20439;-83
2021/10/15 01:28:59;;;;;;;30.77;27.65;;;12.50;99.90;;;;;;5049214;28;20391;-83
2021/10/15 01:31:25;;;;;;;30.77;27.67;;;12.50;99.90;;;;;;5048940;28;20425;-83
2021/10/15 01:33:53;;;;;;;30.23;27.23;;;12.40;99.90;;;;;;5048638;28;20889;-84
2021/10/15 01:36:19;;;;;;;29.02;26.25;;;12.40;99.90;;;;;;5049267;28;20383;-84
2021/10/15 01:38:45;;;;;;;27.67;24.83;;;12.40;99.90;;;;;;5049189;28;20396;-84
2021/10/15 01:41:11;;;;;;;29.60;26.63;;;12.50;99.90;;;;;;5047769;28;20735;-84
2021/10/15 01:43:36;;;;;;;28.70;25.83;;;12.50;99.90;;;;;;5049060;28;20379;-83
2021/10/15 01:46:02;;;;;;;27.33;24.52;;;12.50;99.90;;;;;;5049210;28;20421;-84
2021/10/15 01:48:27;;;;;;;27.53;24.73;;;12.50;99.90;;;;;;5045641;28;20745;-84
2021/10/15 01:50:53;;;;;;;27.27;24.48;;;12.40;99.90;;;;;;5049331;28;20391;-84
2021/10/15 01:53:19;;;;;;;27.33;24.42;;;12.50;99.90;;;;;;5047597;28;20399;-84
2021/10/15 01:55:46;;;;;;;26.33;23.73;;;12.40;99.90;;;;;;5049665;28;20379;-83
2021/10/15 01:58:12;;;;;;;25.70;23.20;;;12.50;99.90;;;;;;5047573;28;20959;-83
2021/10/15 02:00:38;;;;;;;25.23;22.60;;;12.40;99.90;;;;;;5048886;28;20400;-84
2021/10/15 02:03:04;;;;;;;24.92;22.48;;;12.50;99.90;;;;;;5047163;28;20426;-83
2021/10/15 02:05:30;;;;;;;24.55;22.08;;;12.50;99.90;;;;;;5047637;28;20395;-83
2021/10/15 02:07:56;;;;;;;23.48;21.10;;;12.50;99.90;;;;;;5047921;28;20388;-84
2021/10/15 02:10:23;;;;;;;25.58;23.10;;;12.50;99.90;;;;;;5047034;28;20384;-83
2021/10/15 02:12:49;;;;;;;24.80;22.23;;;12.50;99.90;;;;;;5048060;28;20394;-82
2021/10/15 02:15:15;;;;;;;24.33;21.92;;;12.50;99.90;;;;;;5047726;28;20384;-83
2021/10/15 02:17:41;;;;;;;23.38;21.00;;;12.50;99.90;;;;;;5047110;28;20476;-81
2021/10/15 02:20:10;;;;;;;23.25;21.15;;;12.40;99.90;;;;;;5046533;28;20391;-84
2021/10/15 02:22:44;;;;;;;23.48;21.05;;;12.40;99.90;;;;;;5049260;28;20386;-83
2021/10/15 02:25:11;;;;;;;23.63;21.17;;;12.40;99.90;;;;;;5080505;28;20521;-84
2021/10/15 02:27:37;;;;;;;23.13;20.83;;;12.30;99.90;;;;;;5048675;28;21001;-83
2021/10/15 02:30:06;;;;;;;23.13;20.90;;;12.30;99.90;;;;;;5047535;28;20379;-84
2021/10/15 02:32:32;;;;;;;23.65;21.35;;;12.30;99.90;;;;;;5049193;28;20400;-84
2021/10/15 02:34:57;;;;;;;22.47;20.23;;;12.30;99.90;;;;;;5081123;28;20518;-84
2021/10/15 02:37:23;;;;;;;22.90;20.60;;;12.30;99.90;;;;;;5048300;28;21036;-83
2021/10/15 02:39:49;;;;;;;22.52;20.23;;;12.40;99.90;;;;;;5048564;28;20383;-84
2021/10/15 02:42:14;;;;;;;21.77;19.57;;;12.30;99.90;;;;;;5049276;28;20541;-82
2021/10/15 02:44:40;;;;;;;21.90;19.73;;;12.30;99.90;;;;;;5048564;28;20376;-84
2021/10/15 02:47:06;;;;;;;22.13;20.02;;;12.30;99.90;;;;;;5047092;28;20482;-83
2021/10/15 02:49:32;;;;;;;23.75;21.27;;;12.30;99.90;;;;;;5047237;28;20537;-84
2021/10/15 02:51:57;;;;;;;23.60;21.23;;;12.30;99.90;;;;;;5048065;28;20437;-84
2021/10/15 02:54:23;;;;;;;24.50;22.00;;;12.30;99.90;;;;;;5048783;28;20731;-84
2021/10/15 02:56:48;;;;;;;23.60;21.30;;;12.20;99.90;;;;;;5080352;28;20396;-82
2021/10/15 02:59:14;;;;;;;22.87;20.50;;;12.30;99.90;;;;;;5049198;28;20870;-84
2021/10/15 03:01:40;;;;;;;23.45;21.02;;;12.30;99.90;;;;;;5084775;28;20956;-83
2021/10/15 03:04:06;;;;;;;23.97;21.53;;;12.30;99.90;;;;;;5052518;28;20391;-84
2021/10/15 03:06:32;;;;;;;22.17;19.92;;;12.20;99.90;;;;;;5052591;28;20387;-83
2021/10/15 03:08:59;;;;;;;21.50;19.35;;;12.20;99.90;;;;;;5052296;28;20474;-84
2021/10/15 03:11:24;;;;;;;22.17;19.77;;;12.20;99.90;;;;;;5051226;28;20379;-87
2021/10/15 03:13:50;;;;;;;21.55;19.25;;;12.20;99.90;;;;;;5052294;28;20382;-84
2021/10/15 03:16:15;;;;;;;19.20;17.25;;;12.20;99.90;;;;;;5051100;28;20442;-83
2021/10/15 03:18:41;;;;;;;20.13;17.97;;;12.20;99.90;;;;;;5051583;28;20407;-84
2021/10/15 03:21:07;;;;;;;19.05;16.85;;;12.20;99.90;;;;;;5052590;28;20471;-83
2021/10/15 03:23:33;;;;;;;18.83;16.55;;;12.30;99.90;;;;;;5051378;28;20834;-84
2021/10/15 03:25:58;;;;;;;18.20;16.10;;;12.30;99.90;;;;;;5051589;28;20414;-84
2021/10/15 03:28:24;;;;;;;18.77;16.30;;;12.40;99.90;;;;;;5052418;28;20379;-85
2021/10/15 03:30:49;;;;;;;20.02;15.45;;;12.40;99.90;;;;;;5051639;28;20388;-84
2021/10/15 03:33:15;;;;;;;16.47;14.77;;;12.30;99.90;;;;;;5050608;28;20400;-83
2021/10/15 03:35:41;;;;;;;16.10;14.57;;;12.20;99.90;;;;;;5050975;28;20379;-85
2021/10/15 03:38:06;;;;;;;15.90;14.20;;;12.30;99.90;;;;;;5051692;28;20946;-83
2021/10/15 03:40:32;;;;;;;16.63;13.60;;;12.30;99.90;;;;;;5051181;28;20532;-83
2021/10/15 03:42:57;;;;;;;14.10;12.70;;;12.40;99.90;;;;;;5051333;28;20392;-86
2021/10/15 03:45:23;;;;;;;13.77;12.33;;;12.40;99.90;;;;;;5052137;28;20444;-86
2021/10/15 03:47:48;;;;;;;13.63;12.32;;;12.40;99.90;;;;;;5050332;28;20872;-84
2021/10/15 03:50:14;;;;;;;13.87;12.40;;;12.50;99.90;;;;;;5051312;28;20400;-84
2021/10/15 03:52:40;;;;;;;13.50;11.70;;;12.50;99.90;;;;;;5050247;28;20383;-84
2021/10/15 03:55:08;;;;;;;13.63;12.35;;;12.50;99.90;;;;;;5050370;28;20391;-84
2021/10/15 03:57:35;;;;;;;14.95;13.35;;;12.50;99.90;;;;;;5050079;28;20814;-83
2021/10/15 04:00:03;;;;;;;13.27;12.07;;;12.50;99.90;;;;;;5049886;28;20391;-84
2021/10/15 04:02:29;;;;;;;13.75;12.35;;;12.50;99.90;;;;;;5050201;28;20396;-83
2021/10/15 04:04:54;;;;;;;13.27;11.97;;;12.50;99.90;;;;;;5059407;28;20385;-84
2021/10/15 04:07:20;;;;;;;13.18;11.82;;;12.50;99.90;;;;;;5045758;28;20388;-85
2021/10/15 04:09:45;;;;;;;12.67;11.40;;;12.50;99.90;;;;;;5050334;28;20384;-84
2021/10/15 04:12:11;;;;;;;14.13;11.77;;;12.50;99.90;;;;;;5050603;28;20433;-84
2021/10/15 04:14:36;;;;;;;13.30;11.90;;;12.50;99.90;;;;;;5051380;28;20391;-85
2021/10/15 04:17:02;;;;;;;13.13;11.73;;;12.50;99.90;;;;;;5049965;28;20439;-84
2021/10/15 04:19:27;;;;;;;14.75;12.77;;;12.50;99.90;;;;;;5052042;28;20445;-84
2021/10/15 04:21:53;;;;;;;15.17;13.60;;;12.60;99.90;;;;;;5050719;28;20376;-83
2021/10/15 04:24:19;;;;;;;15.77;13.73;;;12.50;99.90;;;;;;5050996;28;20794;-84
2021/10/15 04:26:44;;;;;;;14.80;13.20;;;12.50;99.90;;;;;;5049899;28;20407;-85
2021/10/15 04:29:10;;;;;;;14.90;13.40;;;12.50;99.90;;;;;;5050058;28;20423;-85
2021/10/15 04:31:35;;;;;;;15.97;13.67;;;12.50;99.90;;;;;;5049225;28;20786;-86
2021/10/15 04:34:01;;;;;;;15.70;14.10;;;12.50;99.90;;;;;;5049893;28;20411;-84
2021/10/15 04:36:26;;;;;;;16.02;14.32;;;12.40;99.90;;;;;;5050941;28;20380;-83
2021/10/15 04:38:52;;;;;;;16.00;14.40;;;12.40;99.90;;;;;;5050743;28;20399;-84
2021/10/15 04:41:18;;;;;;;15.27;13.85;;;12.40;99.90;;;;;;5049354;28;20396;-84
2021/10/15 04:43:43;;;;;;;15.47;13.93;;;12.40;99.90;;;;;;5050349;28;20399;-84
2021/10/15 04:46:09;;;;;;;15.10;13.60;;;12.40;99.90;;;;;;5050756;28;20782;-83
2021/10/15 04:48:34;;;;;;;15.02;13.52;;;12.30;99.90;;;;;;5047672;28;20384;-83
2021/10/15 04:51:00;;;;;;;15.23;13.53;;;12.30;99.90;;;;;;5050592;28;20394;-85
2021/10/15 04:53:26;;;;;;;14.77;13.25;;;12.30;99.90;;;;;;5050515;28;20382;-83
2021/10/15 04:55:51;;;;;;;14.53;13.03;;;12.20;99.90;;;;;;5050169;28;20394;-84
2021/10/15 04:58:17;;;;;;;14.50;12.47;;;12.20;99.90;;;;;;5050249;28;20457;-85
2021/10/15 05:00:42;;;;;;;14.15;12.40;;;12.20;99.90;;;;;;5049440;28;20372;-82
2021/10/15 05:03:08;;;;;;;13.80;12.50;;;12.10;99.90;;;;;;5048254;28;20450;-84
2021/10/15 05:05:34;;;;;;;15.25;12.32;;;12.00;99.90;;;;;;5049153;28;20383;-85
2021/10/15 05:08:00;;;;;;;13.88;12.45;;;12.00;99.90;;;;;;5048600;28;20399;-84
2021/10/15 05:10:28;;;;;;;13.52;12.13;;;12.00;99.90;;;;;;5050090;28;20395;-83
2021/10/15 05:12:55;;;;;;;15.60;13.13;;;12.00;99.90;;;;;;5050136;28;20399;-83
2021/10/15 05:15:21;;;;;;;16.05;13.15;;;11.90;99.90;;;;;;5048876;28;20376;-84
2021/10/15 05:17:47;;;;;;;13.68;12.32;;;11.90;99.90;;;;;;5050418;28;20400;-85
2021/10/15 05:20:19;;;;;;;15.07;13.43;;;12.00;99.90;;;;;;5050298;28;20573;-85
2021/10/15 05:22:45;;;;;;;15.55;12.98;;;12.00;99.90;;;;;;5050339;28;20391;-85
2021/10/15 05:25:13;;;;;;;14.10;12.80;;;12.00;99.90;;;;;;5049778;28;20386;-85
2021/10/15 05:27:39;;;;;;;14.20;12.80;;;12.00;99.90;;;;;;5048455;28;20411;-84
2021/10/15 05:30:07;;;;;;;14.65;13.15;;;12.00;99.90;;;;;;5049033;28;20384;-84
2021/10/15 05:32:34;;;;;;;14.43;12.87;;;12.00;99.90;;;;;;5049035;28;20404;-85
2021/10/15 05:35:00;;;;;;;13.73;12.40;;;12.10;99.90;;;;;;5050382;28;20395;-87
2021/10/15 05:37:26;;;;;;;13.73;12.23;;;12.10;99.90;;;;;;5049094;28;20893;-84
2021/10/15 05:39:51;;;;;;;14.65;12.27;;;12.00;99.90;;;;;;5048960;28;20878;-85
2021/10/15 05:42:17;;;;;;;15.40;12.13;;;12.10;99.90;;;;;;5047478;28;21011;-84
2021/10/15 05:44:42;;;;;;;13.18;11.80;;;12.00;99.90;;;;;;5049196;28;20391;-84
2021/10/15 05:47:09;;;;;;;13.93;12.53;;;12.10;99.90;;;;;;5048964;28;20390;-84
2021/10/15 05:49:38;;;;;;;16.27;12.80;;;12.00;99.90;;;;;;5049571;28;20495;-84
2021/10/15 05:52:07;;;;;;;15.20;12.45;;;12.00;99.90;;;;;;5048195;28;20427;-83
2021/10/15 05:54:53;;;;;;;14.48;12.63;;;11.90;99.90;;;;;;5047876;28;20482;-85
2021/10/15 05:59:44;;;;;;;14.70;12.00;;;11.90;99.90;;;;;;5049310;28;20893;-85
2021/10/15 06:02:10;;;;;;;14.20;12.57;;;11.90;99.90;;;;;;5048317;28;20463;-84
2021/10/15 06:15:29;;;;;;;13.30;11.23;;;12.00;99.90;;;;;;5047693;28;20419;-82
2021/10/15 06:17:56;;;;;;;12.25;10.95;;;12.00;99.90;;;;;;5047530;28;20494;-84
2021/10/15 06:20:22;;;;;;;15.38;12.10;;;12.00;99.90;;;;;;5048803;28;20529;-84
2021/10/15 06:22:48;;;;;;;11.82;10.60;;;12.00;99.90;;;;;;5048346;28;20379;-85
2021/10/15 06:25:14;;;;;;;12.57;10.73;;;12.10;99.90;;;;;;5046889;28;20409;-83
2021/10/15 06:27:39;;;;;;;12.90;11.07;;;12.10;99.90;;;;;;5047486;28;20426;-85
2021/10/15 06:30:06;;;;;;;12.53;10.87;;;12.20;99.90;;;;;;5048397;28;20391;-83
2021/10/15 06:32:31;;;;;;;14.23;10.45;;;12.20;99.90;;;;;;5048374;28;20402;-85
2021/10/15 06:34:57;;;;;;;12.17;10.87;;;12.20;99.90;;;;;;5048188;28;20550;-85
2021/10/15 06:37:22;;;;;;;13.10;10.18;;;12.20;99.90;;;;;;5048045;28;20392;-85
2021/10/15 06:39:48;;;;;;;12.97;10.13;;;12.30;99.90;;;;;;5047021;28;20399;-84
2021/10/15 06:42:14;;;;;;;10.65;9.18;;;12.40;99.90;;;;;;5048828;28;20942;-85
2021/10/15 06:44:40;;;;;;;11.25;9.98;;;12.40;99.90;;;;;;5048544;28;20399;-85
2021/10/15 06:47:05;;;;;;;12.10;9.70;;;12.40;99.90;;;;;;5047204;28;20380;-83
2021/10/15 06:49:31;;;;;;;11.10;9.30;;;12.40;99.90;;;;;;5047013;28;20387;-85
2021/10/15 06:51:57;;;;;;;11.88;8.48;;;12.40;99.90;;;;;;5047369;28;20392;-84
2021/10/15 06:54:23;;;;;;;9.75;8.43;;;12.50;99.90;;;;;;5048339;28;20941;-86
2021/10/15 06:56:48;;;;;;;9.50;8.50;;;12.60;99.90;;;;;;5048201;28;21262;-84
2021/10/15 06:59:14;;;;;;;9.07;8.17;;;12.50;99.90;;;;;;5047538;28;20442;-84
2021/10/15 07:01:40;;;;;;;10.57;8.32;;;12.50;99.90;;;;;;5048340;28;20810;-84
2021/10/15 07:04:05;;;;;;;11.10;8.67;;;12.60;99.90;;;;;;5046706;28;20437;-84
2021/10/15 07:06:31;;;;;;;9.95;7.93;;;12.70;99.90;;;;;;5048550;28;20459;-84
2021/10/15 07:08:57;;;;;;;9.85;8.07;;;12.70;99.90;;;;;;5048884;28;20792;-82
2021/10/15 07:11:23;;;;;;;9.63;7.55;;;12.70;99.90;;;;;;5048357;28;20376;-83
2021/10/15 07:13:48;;;;;;;8.55;7.55;;;12.70;99.90;;;;;;5048469;28;20379;-84
2021/10/15 07:16:14;;;;;;;9.60;7.27;;;12.70;99.90;;;;;;5048491;28;20376;-84
2021/10/15 07:18:40;;;;;;;10.50;7.47;;;12.70;99.90;;;;;;5048989;28;20403;-84
2021/10/15 07:21:07;;;;;;;10.50;7.53;;;12.80;99.90;;;;;;5048754;28;20430;-85
2021/10/15 07:23:33;;;;;;;10.00;7.60;;;12.80;99.90;;;;;;5048443;28;20387;-84
2021/10/15 07:25:59;;;;;;;7.65;6.85;;;12.80;99.90;;;;;;5048092;28;20392;-83
2021/10/15 07:28:27;;;;;;;10.18;7.40;;;12.80;99.90;;;;;;5048341;28;20988;-84
2021/10/15 07:30:53;;;;;;;8.75;6.88;;;12.80;99.90;;;;;;5046864;28;20387;-85
2021/10/15 07:33:19;;;;;;;10.27;6.75;;;12.80;99.90;;;;;;5048266;28;20379;-83
2021/10/15 07:35:44;;;;;;;9.17;6.87;;;12.90;99.90;;;;;;5047245;28;20372;-85
2021/10/15 07:38:10;;;;;;;8.20;6.37;;;12.90;99.90;;;;;;5046528;28;20477;-83
2021/10/15 07:40:36;;;;;;;9.73;6.50;;;13.00;99.90;;;;;;5048289;28;20376;-83
2021/10/15 07:43:01;;;;;;;8.27;6.33;;;13.00;99.90;;;;;;5048657;28;20390;-83
2021/10/15 07:45:28;;;;;;;7.83;6.20;;;13.10;99.90;;;;;;5046654;28;20388;-84
2021/10/15 07:47:54;;;;;;;9.00;5.67;;;13.10;99.90;;;;;;5050533;28;20424;-84
2021/10/15 07:50:20;;;;;;;8.00;5.55;;;13.30;99.90;;;;;;5052029;28;20371;-84
2021/10/15 07:52:46;;;;;;;7.78;5.63;;;13.40;99.90;;;;;;5051829;28;20884;-85
2021/10/15 07:55:12;;;;;;;9.05;5.57;;;13.50;99.90;;;;;;5059219;28;20389;-84
2021/10/15 07:57:37;;;;;;;6.63;5.07;;;13.60;99.90;;;;;;5062517;28;20516;-85
2021/10/15 08:00:05;;;;;;;7.75;5.25;;;13.70;99.90;;;;;;5050264;28;20380;-85
2021/10/15 08:02:31;;;;;;;6.75;4.55;;;13.90;99.90;;;;;;5050402;28;20383;-83
2021/10/15 08:04:57;;;;;;;7.00;5.03;;;13.90;99.90;;;;;;5051945;28;20857;-84
2021/10/15 08:07:22;;;;;;;7.63;4.70;;;13.90;99.90;;;;;;5050090;28;20470;-85
2021/10/15 08:09:48;;;;;;;5.90;4.45;;;13.80;99.90;;;;;;5051540;28;20406;-85
2021/10/15 08:12:13;;;;;;;6.63;4.70;;;13.70;99.90;;;;;;5050157;28;20379;-83
2021/10/15 08:14:39;;;;;;;5.68;4.57;;;13.60;99.90;;;;;;5050737;28;20383;-83
2021/10/15 08:17:04;;;;;;;5.60;4.33;;;13.50;99.90;;;;;;5050184;28;20780;-85
2021/10/15 08:19:30;;;;;;;6.38;4.63;;;13.60;99.90;;;;;;5050026;28;20416;-85
2021/10/15 08:21:56;;;;;;;6.73;5.13;;;13.50;99.90;;;;;;5051182;28;20458;-84
2021/10/15 08:24:21;;;;;;;6.80;4.70;;;13.50;99.90;;;;;;5048061;28;20414;-84
2021/10/15 08:26:48;;;;;;;5.13;4.40;;;13.40;99.90;;;;;;5039840;28;20824;-84
2021/10/15 08:29:13;;;;;;;5.30;4.32;;;13.50;99.90;;;;;;5046313;28;20396;-84
2021/10/15 08:31:39;;;;;;;6.60;4.27;;;13.50;99.90;;;;;;5048359;28;20422;-83
2021/10/15 08:34:07;;;;;;;5.63;4.10;;;13.50;99.90;;;;;;5047988;28;20447;-84
2021/10/15 08:36:33;;;;;;;7.03;4.22;;;13.40;99.90;;;;;;5048106;28;20394;-84
2021/10/15 08:38:59;;;;;;;7.20;4.75;;;13.40;99.90;;;;;;5047486;28;20407;-83
2021/10/15 08:41:25;;;;;;;5.70;3.93;;;13.40;99.90;;;;;;5047107;28;20380;-85
2021/10/15 08:43:57;;;;;;;6.68;4.30;;;13.50;99.90;;;;;;5050414;28;20406;-84
2021/10/15 08:46:24;;;;;;;7.15;4.20;;;13.50;99.90;;;;;;5051062;28;20384;-86
2021/10/15 08:48:52;;;;;;;6.68;4.22;;;13.50;99.90;;;;;;5050478;28;20376;-84
2021/10/15 08:51:20;;;;;;;6.55;4.15;;;13.60;99.90;;;;;;5050443;28;20377;-84
2021/10/15 08:53:52;;;;;;;5.35;4.28;;;13.70;99.90;;;;;;5049338;28;20943;-83
2021/10/15 08:56:20;;;;;;;5.35;4.18;;;13.70;99.90;;;;;;5049784;28;20380;-84
2021/10/15 08:58:48;;;;;;;5.43;4.45;;;13.70;99.90;;;;;;5050944;28;20414;-82
2021/10/15 09:01:15;;;;;;;5.32;3.92;;;13.90;99.90;;;;;;5050612;28;20932;-84
2021/10/15 09:03:41;;;;;;;7.47;3.80;;;13.90;99.90;;;;;;5049514;28;20372;-86
2021/10/15 09:06:09;;;;;;;4.88;3.80;;;14.00;99.90;;;;;;5050986;28;20412;-83
2021/10/15 09:08:55;;;;;;;5.15;3.88;;;14.10;99.90;;;;;;5050509;28;20386;-84
2021/10/15 09:11:28;;;;;;;5.22;3.60;;;14.10;99.90;;;;;;5050741;28;20380;-82
2021/10/15 09:14:13;;;;;;;4.47;3.78;;;14.10;99.90;;;;;;5051038;28;20376;-84
2021/10/15 09:16:52;;;;;;;3.77;3.33;;;14.00;99.90;;;;;;5051028;28;20445;-84
2021/10/15 09:19:26;;;;;;;7.50;4.03;;;14.10;99.90;;;;;;5049729;28;21299;-82
2021/10/15 09:22:13;;;;;;;6.05;3.30;;;14.10;99.90;;;;;;5049657;28;20372;-84
2021/10/15 09:24:51;;;;;;;5.85;3.60;;;14.00;99.90;;;;;;5050839;28;20467;-83
2021/10/15 09:27:24;;;;;;;7.20;3.65;;;13.90;99.90;;;;;;5050752;28;20846;-84
2021/10/15 09:30:00;;;;;;;6.78;3.50;;;14.00;99.90;;;;;;5050808;28;20429;-84
2021/10/15 09:32:30;;;;;;;6.75;3.60;;;14.10;99.90;;;;;;5048931;28;20880;-83
2021/10/15 09:34:57;;;;;;;5.40;3.53;;;14.00;99.90;;;;;;5050384;28;21113;-84
2021/10/15 09:37:33;;;;;;;4.85;3.53;;;14.00;99.90;;;;;;5050323;28;20408;-83
2021/10/15 09:40:08;;;;;;;5.53;3.67;;;14.00;99.90;;;;;;5050525;28;20391;-84
2021/10/15 09:42:41;;;;;;;5.68;3.53;;;14.00;99.90;;;;;;5050123;28;20466;-85
2021/10/15 09:45:18;;;;;;;5.18;3.28;;;14.00;99.90;;;;;;5048178;28;20399;-83
2021/10/15 09:47:55;;;;;;;5.60;3.53;;;14.10;99.90;;;;;;5048755;28;20414;-84
2021/10/15 09:50:30;;;;;;;5.38;3.70;;;14.20;99.90;;;;;;5050280;28;20383;-83
2021/10/15 09:52:56;;;;;;;6.77;4.00;;;14.30;99.90;;;;;;5049964;28;20459;-85
2021/10/15 09:55:35;;;;;;;5.35;3.67;;;14.30;99.90;;;;;;5050346;28;20379;-83
2021/10/15 09:58:20;;;;;;;6.95;3.45;;;14.50;99.90;;;;;;5048461;28;20523;-83
2021/10/15 10:00:48;;;;;;;5.13;3.60;;;14.60;99.90;;;;;;5045872;28;20391;-84
2021/10/15 10:03:14;;;;;;;5.85;3.63;;;14.60;99.90;;;;;;5050306;28;20858;-86
2021/10/15 10:05:40;;;;;;;6.28;3.90;;;14.60;99.90;;;;;;5048534;28;20422;-84
2021/10/15 10:08:06;;;;;;;4.97;3.30;;;14.50;99.90;;;;;;5049204;28;20383;-84
2021/10/15 10:10:34;;;;;;;5.95;3.65;;;14.40;99.90;;;;;;5049135;28;20376;-84
2021/10/15 10:13:01;;;;;;;5.68;3.67;;;14.20;99.90;;;;;;5049095;28;20388;-83
2021/10/15 10:15:33;;;;;;;8.35;4.40;;;14.20;99.90;;;;;;5048318;28;20474;-85
2021/10/15 10:18:23;;;;;;;7.03;3.83;;;14.10;99.90;;;;;;5048569;28;20422;-84
2021/10/15 10:20:52;;;;;;;7.10;4.03;;;13.90;99.90;;;;;;5050116;28;20846;-83
2021/10/15 10:23:22;;;;;;;7.77;4.50;;;13.70;99.90;;;;;;5036136;28;20396;-83
2021/10/15 10:25:48;;;;;;;4.88;4.00;;;13.70;99.90;;;;;;5045463;28;20415;-83
2021/10/15 10:28:21;;;;;;;7.97;4.38;;;13.60;99.90;;;;;;5047063;28;20707;-83
2021/10/15 10:30:50;;;;;;;6.90;4.63;;;13.50;99.90;;;;;;5042011;28;20438;-84
2021/10/15 10:33:16;;;;;;;6.30;4.00;;;13.60;99.90;;;;;;5045581;28;20891;-84
2021/10/15 10:35:43;;;;;;;5.78;4.18;;;13.60;99.90;;;;;;5046567;28;20379;-83
2021/10/15 10:38:20;;;;;;;7.55;4.70;;;13.60;99.90;;;;;;5046371;28;21338;-84
2021/10/15 10:41:01;;;;;;;8.15;4.63;;;13.60;99.90;;;;;;5043655;28;20387;-83
2021/10/15 10:43:35;;;;;;;7.30;4.30;;;13.50;99.90;;;;;;5044618;28;20387;-84
2021/10/15 10:46:12;;;;;;;8.07;4.88;;;13.60;99.90;;;;;;5046789;28;20399;-83
2021/10/15 10:48:50;;;;;;;5.68;4.50;;;13.50;99.90;;;;;;5044701;28;20384;-84
2021/10/15 10:51:31;;;;;;;10.57;5.15;;;13.50;99.90;;;;;;5046581;28;20399;-83
2021/10/15 10:54:00;;;;;;;7.70;5.10;;;13.50;99.90;;;;;;5046274;28;20511;-83
2021/10/15 10:56:43;;;;;;;8.63;7.20;;;13.50;99.90;;;;;;5045770;28;20388;-83
2021/10/15 10:59:17;;;;;;;10.32;7.25;;;13.40;99.90;;;;;;5044773;28;20391;-84
2021/10/15 11:01:58;;;;;;;10.45;7.57;;;13.30;99.90;;;;;;5043716;28;20407;-85
2021/10/15 11:04:34;;;;;;;11.93;9.10;;;13.10;99.90;;;;;;5044436;28;20852;-85
2021/10/15 11:07:00;;;;;;;12.75;9.52;;;13.00;99.90;;;;;;5047458;28;20426;-85
2021/10/15 11:09:38;;;;;;;13.43;10.13;;;12.80;99.90;;;;;;5044907;28;20384;-85
2021/10/15 11:12:05;;;;;;;13.68;10.98;;;12.70;99.90;;;;;;5045064;28;20387;-84
2021/10/15 11:14:55;;;;;;;15.05;11.95;;;12.60;99.90;;;;;;5046486;28;20384;-84
2021/10/15 11:17:35;;;;;;;17.63;14.27;;;12.50;99.90;;;;;;5045787;28;20411;-86
2021/10/15 11:20:07;;;;;;;15.43;13.57;;;12.40;99.90;;;;;;5046579;28;20398;-85
2021/10/15 11:22:34;;;;;;;15.02;13.02;;;12.40;99.90;;;;;;5050690;28;20433;-83
2021/10/15 11:25:00;;;;;;;19.03;14.10;;;12.40;99.90;;;;;;5050425;28;20753;-83
2021/10/15 11:27:25;;;;;;;16.43;12.23;;;12.20;99.90;;;;;;5051110;28;20372;-82
2021/10/15 11:29:55;;;;;;;14.32;12.82;;;12.20;99.90;;;;;;5050268;28;20861;-83
2021/10/15 11:32:35;;;;;;;8.55;7.07;;;12.20;99.90;;;;;;5048022;28;20380;-81
2021/10/15 11:35:05;;;;;;;8.23;4.35;;;12.00;99.90;;;;;;5046633;28;20533;-82
2021/10/15 11:37:50;;;;;;;4.32;3.08;;;11.80;99.90;;;;;;5047112;28;20956;-81
2021/10/15 11:40:23;;;;;;;4.00;2.92;;;11.60;99.90;;;;;;5047598;28;20371;-81
2021/10/15 11:42:50;;;;;;;3.25;2.00;;;11.50;99.90;;;;;;5044625;28;20387;-83
2021/10/15 11:45:26;;;;;;;3.35;1.50;;;11.30;99.90;;;;;;5037751;28;20384;-82
2021/10/15 11:48:03;;;;;;;5.13;1.80;;;11.30;99.90;;;;;;5048427;28;20442;-84
2021/10/15 11:50:36;;;;;;;2.63;1.90;;;11.20;99.90;;;;;;5048234;28;20503;-82
2021/10/15 11:53:03;;;;;;;1.80;1.60;;;11.20;99.90;;;;;;5048964;28;20414;-82
2021/10/15 11:55:36;;;;;;;4.63;1.85;;;11.20;99.90;;;;;;5047521;28;20414;-83
2021/10/15 11:58:20;;;;;;;3.05;1.60;;;11.10;99.90;;;;;;5048819;28;20772;-81
2021/10/15 12:01:12;;;;;;;2.75;1.60;;;11.20;99.90;;;;;;5048738;28;20410;-82
2021/10/15 12:03:38;;;;;;;1.85;1.50;;;11.30;99.90;;;;;;5049184;28;20967;-82
2021/10/15 12:06:28;;;;;;;2.80;1.80;;;11.40;99.90;;;;;;5049695;28;20384;-83
2021/10/15 12:08:57;;;;;;;2.17;1.50;;;11.40;99.90;;;;;;5048802;28;20388;-82
2021/10/15 12:11:37;;;;;;;2.97;2.03;;;11.30;99.90;;;;;;5048869;28;20395;-81
2021/10/15 12:14:05;;;;;;;5.05;2.05;;;11.30;99.90;;;;;;5049039;28;20419;-82
2021/10/15 12:16:32;;;;;;;3.40;1.98;;;11.30;99.90;;;;;;5049243;28;20403;-82
2021/10/15 12:19:00;;;;;;;3.33;2.00;;;11.30;99.90;;;;;;5048768;28;20404;-81
2021/10/15 12:21:56;;;;;;;3.15;1.95;;;11.40;99.90;;;;;;5047981;28;20750;-82
2021/10/15 12:24:37;;;;;;;2.97;1.80;;;11.50;99.90;;;;;;5039070;28;20384;-82
2021/10/15 12:27:21;;;;;;;2.08;1.80;;;11.60;99.90;;;;;;5046475;28;20757;-81
2021/10/15 12:29:48;;;;;;;2.40;1.80;;;11.60;99.90;;;;;;5048636;28;21091;-82
2021/10/15 12:32:18;;;;;;;3.60;2.03;;;11.60;99.90;;;;;;5047269;28;20398;-83
2021/10/15 12:35:01;;;;;;;2.50;1.88;;;11.70;99.90;;;;;;5044059;28;20380;-82
2021/10/15 12:37:44;;;;;;;3.30;1.90;;;11.60;99.90;;;;;;5048486;28;20453;-83
2021/10/15 12:40:24;;;;;;;3.37;1.80;;;11.60;99.90;;;;;;5044542;28;20463;-82
2021/10/15 12:43:00;;;;;;;3.67;1.83;;;11.70;99.90;;;;;;5046881;28;20380;-82
2021/10/15 12:45:31;;;;;;;2.33;1.40;;;11.60;99.90;;;;;;5045489;28;20392;-82
2021/10/15 12:48:03;;;;;;;2.50;1.50;;;11.60;99.90;;;;;;5046615;28;20396;-81
2021/10/15 12:50:36;;;;;;;2.92;1.40;;;11.50;99.90;;;;;;5047043;28;20454;-86
2021/10/15 12:53:14;;;;;;;3.00;1.50;;;11.50;99.90;;;;;;5045134;28;20380;-82
2021/10/15 12:55:56;;;;;;;2.43;1.10;;;11.50;99.90;;;;;;5047231;28;20410;-82